Time;durP1;ratioP1;P1;durP2;ratioP2;P2;SDS_P1;SDS_P2;PMS_P1;PMS_P2;Temp;Humidity;BMP_temperature;BMP_pressure;BME280_temperature;BME280_humidity;BME280_pressure;Samples;Min_cycle;Max_cycle;Signal;HPM_P1;HPM_P2
2022/04/25 00:01:22;;;;;;;30.25;27.35;;;9.90;99.90;;;;;;6001279;23;20201;-80
2022/04/25 00:03:49;;;;;;;29.80;27.00;;;10.00;99.90;;;;;;6005605;23;20597;-80
2022/04/25 00:06:17;;;;;;;29.85;26.95;;;10.00;99.90;;;;;;6002532;23;20197;-79
2022/04/25 00:08:44;;;;;;;29.27;26.63;;;10.00;99.90;;;;;;6002182;23;20247;-79
2022/04/25 00:11:11;;;;;;;29.00;26.30;;;10.00;99.90;;;;;;6003304;23;20195;-79
2022/04/25 00:13:38;;;;;;;29.55;26.85;;;10.00;99.90;;;;;;6002821;23;20312;-79
2022/04/25 00:16:05;;;;;;;28.35;25.65;;;10.00;99.90;;;;;;6003781;23;20739;-80
2022/04/25 00:18:32;;;;;;;28.98;26.33;;;10.00;99.90;;;;;;6004384;23;20224;-79
2022/04/25 00:21:00;;;;;;;29.55;26.77;;;10.00;99.90;;;;;;6003961;23;20196;-80
2022/04/25 00:23:28;;;;;;;29.23;26.52;;;10.00;99.90;;;;;;6002326;23;20245;-80
2022/04/25 00:25:56;;;;;;;29.27;26.58;;;10.00;99.90;;;;;;5998474;23;20277;-80
2022/04/25 00:28:23;;;;;;;32.70;29.50;;;10.00;99.90;;;;;;6003744;23;20254;-78
2022/04/25 00:30:50;;;;;;;31.27;28.38;;;10.10;99.90;;;;;;6000305;23;20747;-80
2022/04/25 00:33:18;;;;;;;29.42;26.63;;;10.10;99.90;;;;;;5994816;23;20246;-80
2022/04/25 00:35:44;;;;;;;33.28;30.17;;;10.00;99.90;;;;;;6004076;23;20268;-80
2022/04/25 00:38:11;;;;;;;31.05;28.05;;;10.00;99.90;;;;;;5994496;23;20226;-80
2022/04/25 00:40:40;;;;;;;32.28;29.33;;;10.00;99.90;;;;;;6000848;23;20198;-79
2022/04/25 00:43:07;;;;;;;32.40;29.50;;;10.00;99.90;;;;;;6004061;23;20275;-80
2022/04/25 00:45:35;;;;;;;30.15;27.52;;;10.00;99.90;;;;;;6005308;23;20292;-80
2022/04/25 00:48:03;;;;;;;31.05;28.15;;;9.90;99.90;;;;;;6003125;23;20213;-80
2022/04/25 00:50:31;;;;;;;34.35;31.15;;;9.90;99.90;;;;;;6002098;23;20192;-79
2022/04/25 00:52:59;;;;;;;36.10;32.45;;;9.80;99.90;;;;;;5999067;23;20563;-79
2022/04/25 00:55:26;;;;;;;35.42;31.90;;;9.80;99.90;;;;;;5995885;23;21776;-79
2022/04/25 00:57:56;;;;;;;35.38;32.03;;;9.60;99.90;;;;;;6002065;23;20210;-79
2022/04/25 01:00:23;;;;;;;35.35;32.05;;;9.60;99.90;;;;;;5986380;23;20188;-79
2022/04/25 01:02:51;;;;;;;36.72;33.17;;;9.60;99.90;;;;;;6003119;23;20274;-79
2022/04/25 01:05:18;;;;;;;35.72;32.33;;;9.50;99.90;;;;;;6004216;23;20839;-79
2022/04/25 01:07:45;;;;;;;37.35;33.63;;;9.50;99.90;;;;;;5995080;23;20218;-79
2022/04/25 01:10:13;;;;;;;36.72;33.22;;;9.50;99.90;;;;;;5987310;23;20196;-79
2022/04/25 01:12:40;;;;;;;38.50;34.90;;;9.50;99.90;;;;;;6001766;23;20198;-79
2022/04/25 01:15:10;;;;;;;35.92;32.45;;;9.50;99.90;;;;;;6004713;23;20218;-79
2022/04/25 01:17:38;;;;;;;36.53;32.92;;;9.50;99.90;;;;;;6000586;23;20265;-79
2022/04/25 01:20:07;;;;;;;35.65;32.38;;;9.50;99.90;;;;;;5996437;23;20616;-79
2022/04/25 01:22:41;;;;;;;35.95;32.70;;;9.60;99.90;;;;;;6001799;23;20205;-79
2022/04/25 01:27:55;;;;;;;35.20;32.00;;;9.60;99.90;;;;;;6003364;23;20219;-79
2022/04/25 01:30:22;;;;;;;35.33;31.88;;;9.60;99.90;;;;;;6004671;23;20194;-79
2022/04/25 01:32:49;;;;;;;34.38;31.17;;;9.50;99.90;;;;;;5997351;23;20195;-79
2022/04/25 01:35:16;;;;;;;34.45;31.38;;;9.60;99.90;;;;;;6004630;23;20350;-79
2022/04/25 01:37:43;;;;;;;37.63;34.20;;;9.60;99.90;;;;;;5989000;23;20212;-79
2022/04/25 01:40:12;;;;;;;34.60;31.50;;;9.60;99.90;;;;;;6000753;23;20192;-79
2022/04/25 01:42:39;;;;;;;34.83;31.50;;;9.60;99.90;;;;;;5998825;23;20192;-79
2022/04/25 01:45:07;;;;;;;36.17;32.88;;;9.60;99.90;;;;;;5999870;23;20209;-78
2022/04/25 01:47:34;;;;;;;34.92;31.73;;;9.60;99.90;;;;;;5996946;23;20787;-79
2022/04/25 01:50:01;;;;;;;34.75;31.65;;;9.60;99.90;;;;;;6004737;23;20188;-79
2022/04/25 01:52:31;;;;;;;33.95;30.75;;;9.60;99.90;;;;;;6002080;23;20211;-79
2022/04/25 01:54:58;;;;;;;32.90;30.00;;;9.60;99.90;;;;;;5995693;23;20561;-79
2022/04/25 01:57:27;;;;;;;35.47;32.08;;;9.70;99.90;;;;;;6002807;23;20589;-79
2022/04/25 01:59:54;;;;;;;35.55;32.25;;;9.70;99.90;;;;;;5996706;23;20196;-78
2022/04/25 02:02:22;;;;;;;39.08;35.30;;;9.60;99.90;;;;;;5988477;23;20259;-79
2022/04/25 02:04:49;;;;;;;36.20;32.70;;;9.60;99.90;;;;;;6003485;23;20222;-78
2022/04/25 02:07:16;;;;;;;35.00;31.65;;;9.60;99.90;;;;;;6002068;23;20273;-79
2022/04/25 02:09:43;;;;;;;33.08;30.08;;;9.60;99.90;;;;;;6002464;23;20255;-79
2022/04/25 02:12:10;;;;;;;32.35;29.35;;;9.60;99.90;;;;;;6002406;23;20612;-79
2022/04/25 02:14:41;;;;;;;33.58;30.63;;;9.70;99.90;;;;;;6002368;23;20225;-79
2022/04/25 02:17:09;;;;;;;34.17;30.98;;;9.70;99.90;;;;;;6003483;23;20231;-79
2022/04/25 02:19:38;;;;;;;34.33;31.02;;;9.70;99.90;;;;;;6004397;23;20272;-79
2022/04/25 02:22:06;;;;;;;32.92;30.02;;;9.60;99.90;;;;;;6002807;23;20192;-79
2022/04/25 02:24:33;;;;;;;34.25;30.95;;;9.60;99.90;;;;;;6003381;23;20193;-79
2022/04/25 02:27:03;;;;;;;33.33;30.02;;;9.60;99.90;;;;;;6002861;23;20278;-78
2022/04/25 02:29:31;;;;;;;33.40;30.17;;;9.50;99.90;;;;;;5997916;23;20278;-79
2022/04/25 02:32:00;;;;;;;36.33;32.83;;;9.50;99.90;;;;;;6000791;23;20190;-79
2022/04/25 02:34:29;;;;;;;37.75;34.05;;;9.50;99.90;;;;;;5991500;23;20241;-79
2022/04/25 02:36:57;;;;;;;35.97;32.58;;;9.50;99.90;;;;;;6003316;23;20197;-79
2022/04/25 02:39:24;;;;;;;35.17;31.88;;;9.50;99.90;;;;;;6003000;23;20196;-78
2022/04/25 02:41:51;;;;;;;34.78;31.33;;;9.50;99.90;;;;;;5997913;23;20268;-79
2022/04/25 02:44:18;;;;;;;33.95;30.65;;;9.50;99.90;;;;;;6002486;23;20736;-79
2022/04/25 02:46:45;;;;;;;35.53;32.00;;;9.50;99.90;;;;;;6003508;23;20269;-79
2022/04/25 02:49:14;;;;;;;35.70;32.30;;;9.50;99.90;;;;;;6001801;23;20200;-79
2022/04/25 02:51:41;;;;;;;34.50;31.25;;;9.60;99.90;;;;;;6001573;23;20200;-79
2022/04/25 02:54:08;;;;;;;33.47;30.20;;;9.60;99.90;;;;;;6002419;23;20302;-79
2022/04/25 02:56:35;;;;;;;35.28;31.67;;;9.60;99.90;;;;;;6003397;23;20250;-79
2022/04/25 02:59:02;;;;;;;36.38;32.88;;;9.60;99.90;;;;;;5997243;23;20242;-79
2022/04/25 03:01:29;;;;;;;34.53;31.05;;;9.60;99.90;;;;;;6002014;23;20702;-79
2022/04/25 03:03:56;;;;;;;36.17;32.65;;;9.70;99.90;;;;;;6000847;23;20279;-79
2022/04/25 03:06:25;;;;;;;35.55;32.15;;;9.70;99.90;;;;;;6003381;23;20191;-79
2022/04/25 03:08:52;;;;;;;36.55;32.90;;;9.60;99.90;;;;;;6004265;23;20669;-79
2022/04/25 03:11:18;;;;;;;35.72;32.33;;;9.50;99.90;;;;;;6001815;23;20206;-79
2022/04/25 03:13:45;;;;;;;35.70;32.22;;;9.60;99.90;;;;;;5988644;23;20196;-79
2022/04/25 03:16:12;;;;;;;35.17;31.85;;;9.60;99.90;;;;;;6002218;23;20193;-79
2022/04/25 03:18:39;;;;;;;36.70;33.13;;;9.60;99.90;;;;;;5997710;23;20216;-79
2022/04/25 03:21:07;;;;;;;34.65;31.35;;;9.60;99.90;;;;;;6000662;23;20226;-79
2022/04/25 03:23:36;;;;;;;34.78;31.48;;;9.70;99.90;;;;;;6003888;23;20222;-79
2022/04/25 03:26:04;;;;;;;35.90;32.50;;;9.70;99.90;;;;;;6003479;23;20206;-79
2022/04/25 03:28:32;;;;;;;34.40;31.13;;;9.70;99.90;;;;;;5986436;23;20224;-79
2022/04/25 03:30:59;;;;;;;35.22;31.88;;;9.70;99.90;;;;;;5984504;23;20312;-79
2022/04/25 03:33:31;;;;;;;37.17;33.58;;;9.70;99.90;;;;;;6000853;23;20194;-79
2022/04/25 03:36:00;;;;;;;36.72;33.22;;;9.60;99.90;;;;;;6004276;23;20251;-79
2022/04/25 03:38:27;;;;;;;35.28;31.98;;;9.60;99.90;;;;;;6005237;23;20211;-79
2022/04/25 03:40:55;;;;;;;34.80;31.42;;;9.70;99.90;;;;;;5999069;23;20276;-79
2022/04/25 03:43:24;;;;;;;37.50;33.78;;;9.60;99.90;;;;;;6002674;23;20197;-79
2022/04/25 03:45:51;;;;;;;36.58;32.97;;;9.50;99.90;;;;;;5991770;23;20195;-79
2022/04/25 03:48:18;;;;;;;35.25;31.88;;;9.50;99.90;;;;;;6004063;23;20727;-79
2022/04/25 03:50:45;;;;;;;38.83;34.95;;;9.40;99.90;;;;;;5986783;23;20196;-79
2022/04/25 03:53:14;;;;;;;37.53;33.80;;;9.40;99.90;;;;;;6001182;23;20614;-79
2022/04/25 03:58:27;;;;;;;39.50;35.63;;;9.50;99.90;;;;;;6001898;23;20302;-79
2022/04/25 04:00:54;;;;;;;37.33;33.75;;;9.50;99.90;;;;;;5989843;23;20197;-79
2022/04/25 04:03:21;;;;;;;35.97;32.38;;;9.50;99.90;;;;;;5999912;23;20191;-76
2022/04/25 04:05:50;;;;;;;37.00;33.50;;;9.50;99.90;;;;;;5992896;23;20282;-80
2022/04/25 04:08:18;;;;;;;36.78;33.30;;;9.50;99.90;;;;;;6000918;23;20675;-79
2022/04/25 04:10:44;;;;;;;36.60;33.08;;;9.50;99.90;;;;;;5987094;23;20635;-79
2022/04/25 04:13:12;;;;;;;36.30;32.90;;;9.60;99.90;;;;;;6002292;23;20196;-78
2022/04/25 04:15:41;;;;;;;36.58;33.03;;;9.50;99.90;;;;;;5989282;23;20213;-77
2022/04/25 04:18:08;;;;;;;37.25;33.75;;;9.60;99.90;;;;;;5999635;23;20214;-78
2022/04/25 04:20:36;;;;;;;37.90;34.20;;;9.60;99.90;;;;;;6000123;23;20207;-79
2022/04/25 04:23:03;;;;;;;37.28;33.75;;;9.60;99.90;;;;;;5998311;23;20260;-80
2022/04/25 04:25:32;;;;;;;36.85;33.40;;;9.60;99.90;;;;;;5999466;23;20230;-78
2022/04/25 04:27:59;;;;;;;35.08;31.75;;;9.60;99.90;;;;;;6000366;23;20263;-79
2022/04/25 04:30:26;;;;;;;33.40;30.35;;;9.70;99.90;;;;;;5997183;23;20708;-79
2022/04/25 04:32:54;;;;;;;35.70;32.50;;;9.70;99.90;;;;;;6000832;23;20237;-79
2022/04/25 04:38:02;;;;;;;35.55;32.25;;;9.70;99.90;;;;;;5998237;23;20213;-79
2022/04/25 04:40:29;;;;;;;35.58;32.20;;;9.60;99.90;;;;;;5997886;23;20251;-80
2022/04/25 04:42:58;;;;;;;36.13;32.55;;;9.60;99.90;;;;;;5983641;23;20183;-80
2022/04/25 04:45:25;;;;;;;34.63;31.42;;;9.50;99.90;;;;;;5978195;23;20280;-78
2022/04/25 04:47:54;;;;;;;35.60;32.10;;;9.50;99.90;;;;;;5985887;23;20336;-78
2022/04/25 04:50:21;;;;;;;34.47;31.27;;;9.50;99.90;;;;;;5989072;23;20270;-77
2022/04/25 04:52:49;;;;;;;36.03;32.63;;;9.60;99.90;;;;;;5985087;23;20263;-78
2022/04/25 04:55:17;;;;;;;37.10;33.05;;;9.70;99.90;;;;;;5996509;23;20333;-78
2022/04/25 04:57:44;;;;;;;36.20;32.60;;;9.70;99.90;;;;;;5993270;23;20273;-78
2022/04/25 05:00:14;;;;;;;33.92;30.83;;;9.70;99.90;;;;;;5986009;23;20258;-78
2022/04/25 05:02:42;;;;;;;34.25;31.05;;;9.70;99.90;;;;;;5998813;23;20302;-79
2022/04/25 05:05:11;;;;;;;35.67;32.28;;;9.60;99.90;;;;;;5998653;23;20225;-78
2022/04/25 05:07:38;;;;;;;35.75;32.35;;;9.60;99.90;;;;;;5994358;23;20220;-78
2022/04/25 05:10:06;;;;;;;35.92;32.53;;;9.50;99.90;;;;;;5998650;23;20266;-79
2022/04/25 05:12:49;;;;;;;36.72;33.17;;;9.60;99.90;;;;;;5990159;23;20233;-79
2022/04/25 05:15:16;;;;;;;35.13;31.92;;;9.70;99.90;;;;;;5989706;23;20225;-78
2022/04/25 05:17:48;;;;;;;34.17;31.00;;;9.80;99.90;;;;;;5981603;23;20219;-79
2022/04/25 05:20:16;;;;;;;34.88;31.55;;;9.70;99.90;;;;;;5987540;23;20188;-80
2022/04/25 05:22:46;;;;;;;37.03;33.53;;;9.90;99.90;;;;;;5994309;23;20678;-80
2022/04/25 05:25:15;;;;;;;34.72;31.52;;;10.00;99.90;;;;;;5987085;23;20191;-80
2022/04/25 05:27:43;;;;;;;35.80;32.40;;;10.10;99.90;;;;;;5996921;23;20204;-80
2022/04/25 05:30:11;;;;;;;34.28;31.08;;;10.20;99.90;;;;;;5995896;23;20209;-81
2022/04/25 05:32:46;;;;;;;34.72;31.63;;;10.20;99.90;;;;;;5996807;23;20188;-90
2022/04/25 05:35:16;;;;;;;34.30;31.13;;;10.20;99.90;;;;;;5991383;23;20212;-80
2022/04/25 05:37:43;;;;;;;36.95;33.65;;;10.20;99.90;;;;;;6000578;23;20584;-80
2022/04/25 05:40:11;;;;;;;33.17;30.15;;;10.30;99.90;;;;;;6001338;23;20192;-80
2022/04/25 05:42:40;;;;;;;35.95;32.53;;;10.30;99.90;;;;;;5996019;23;20288;-80
2022/04/25 05:45:10;;;;;;;35.50;32.30;;;10.20;99.90;;;;;;5997747;23;20201;-80
2022/04/25 05:47:37;;;;;;;32.67;29.67;;;10.20;99.90;;;;;;5995937;23;20205;-76
2022/04/25 05:52:52;;;;;;;37.35;33.80;;;10.30;99.90;;;;;;6003330;23;20197;-79
2022/04/25 05:55:19;;;;;;;35.75;32.55;;;10.40;99.90;;;;;;5996664;23;20216;-79
2022/04/25 05:57:46;;;;;;;33.28;30.23;;;10.40;99.90;;;;;;6003869;23;20292;-79
2022/04/25 06:00:15;;;;;;;36.63;33.20;;;10.50;99.90;;;;;;5999245;23;20271;-79
2022/04/25 06:02:44;;;;;;;36.80;33.40;;;10.40;99.90;;;;;;6001647;23;20242;-79
2022/04/25 06:05:12;;;;;;;34.60;31.40;;;10.50;99.90;;;;;;5999456;23;20281;-79
2022/04/25 06:07:41;;;;;;;35.45;32.10;;;10.60;99.90;;;;;;5995510;23;20215;-79
2022/04/25 06:10:11;;;;;;;34.75;31.60;;;10.60;99.90;;;;;;5999413;23;20200;-79
2022/04/25 06:12:40;;;;;;;33.30;30.30;;;10.60;99.90;;;;;;6002003;23;20272;-79
2022/04/25 06:15:08;;;;;;;34.20;31.13;;;10.80;99.90;;;;;;5996587;23;20561;-79
2022/04/25 06:17:35;;;;;;;31.67;28.88;;;10.90;99.90;;;;;;5984489;23;20205;-79
2022/04/25 06:20:03;;;;;;;33.72;30.67;;;11.00;99.90;;;;;;5994898;23;20741;-80
2022/04/25 06:22:30;;;;;;;30.50;27.90;;;11.10;99.90;;;;;;6001060;23;20288;-81
2022/04/25 06:24:57;;;;;;;31.70;28.80;;;11.20;99.90;;;;;;5999404;23;20587;-81
2022/04/25 06:27:25;;;;;;;32.88;30.08;;;11.20;99.90;;;;;;6001532;23;20564;-79
2022/04/25 06:29:52;;;;;;;28.80;26.40;;;11.30;99.90;;;;;;5998462;23;20203;-81
2022/04/25 06:32:20;;;;;;;29.15;26.73;;;11.60;99.90;;;;;;6002768;23;20200;-79
2022/04/25 06:34:47;;;;;;;29.40;26.95;;;11.90;99.90;;;;;;5999201;23;20248;-74
2022/04/25 06:37:15;;;;;;;29.30;26.80;;;12.10;99.90;;;;;;6001434;23;20210;-78
2022/04/25 06:39:42;;;;;;;28.42;25.92;;;12.20;99.90;;;;;;6000672;23;20654;-81
2022/04/25 06:42:10;;;;;;;27.75;25.35;;;12.30;99.90;;;;;;6003947;23;20604;-87
2022/04/25 06:44:39;;;;;;;28.45;26.05;;;12.60;99.90;;;;;;6002702;23;20535;-83
2022/04/25 06:47:07;;;;;;;28.60;26.20;;;12.80;99.90;;;;;;6002167;23;20249;-80
2022/04/25 06:49:33;;;;;;;26.52;24.40;;;13.00;99.90;;;;;;5990982;23;20206;-81
2022/04/25 06:52:01;;;;;;;26.42;24.20;;;13.30;99.90;;;;;;5997392;23;20326;-81
2022/04/25 06:54:30;;;;;;;25.63;23.52;;;13.60;99.90;;;;;;5995325;23;20190;-80
2022/04/25 06:56:58;;;;;;;26.03;23.83;;;14.10;99.90;;;;;;5998035;23;20558;-81
2022/04/25 06:59:25;;;;;;;25.93;23.80;;;14.50;99.90;;;;;;5996322;23;20445;-81
2022/04/25 07:01:54;;;;;;;25.60;23.60;;;14.80;99.90;;;;;;5999232;23;20624;-80
2022/04/25 07:04:21;;;;;;;26.77;24.67;;;15.00;99.90;;;;;;5997828;23;20439;-80
2022/04/25 07:06:49;;;;;;;25.60;23.50;;;15.00;99.90;;;;;;5993895;23;20516;-81
2022/04/25 07:09:16;;;;;;;22.80;21.00;;;15.10;99.90;;;;;;5996034;23;20537;-80
2022/04/25 07:11:45;;;;;;;25.17;23.17;;;15.00;99.90;;;;;;5996188;23;20477;-80
2022/04/25 07:14:13;;;;;;;24.03;22.13;;;14.80;99.90;;;;;;5999930;23;20493;-80
2022/04/25 07:16:41;;;;;;;24.70;22.70;;;14.70;99.90;;;;;;5996331;23;20473;-80
2022/04/25 07:19:09;;;;;;;23.77;21.87;;;14.90;99.90;;;;;;6000075;23;20510;-80
2022/04/25 07:29:50;;;;;;;26.60;24.40;;;16.20;99.90;;;;;;5999807;23;20448;-80
2022/04/25 07:32:17;;;;;;;24.30;22.40;;;16.30;99.90;;;;;;5999602;23;20471;-80
2022/04/25 07:34:47;;;;;;;22.70;20.80;;;16.40;99.90;;;;;;5997497;23;20484;-80
2022/04/25 07:37:15;;;;;;;23.47;21.67;;;16.60;99.90;;;;;;5989227;23;20555;-80
2022/04/25 07:39:42;;;;;;;24.10;22.30;;;16.80;99.90;;;;;;5994731;23;22049;-80
2022/04/25 07:42:09;;;;;;;23.93;22.10;;;16.80;99.90;;;;;;6004821;23;20535;-80
2022/04/25 07:44:36;;;;;;;23.80;21.70;;;16.80;99.90;;;;;;6002418;23;20519;-80
2022/04/25 07:47:05;;;;;;;23.47;21.67;;;16.90;99.90;;;;;;6006068;23;20472;-80
2022/04/25 07:49:33;;;;;;;23.67;21.87;;;17.30;99.90;;;;;;5999060;23;20464;-80
2022/04/25 07:52:02;;;;;;;22.10;20.40;;;17.50;99.90;;;;;;5977719;23;20520;-80
2022/04/25 07:54:29;;;;;;;23.13;21.43;;;17.70;99.90;;;;;;5997922;23;20468;-81
2022/04/25 07:56:56;;;;;;;23.30;21.53;;;18.20;99.90;;;;;;5995463;23;20526;-79
2022/04/25 07:59:23;;;;;;;22.87;21.17;;;18.50;99.90;;;;;;5998389;23;20449;-79
2022/04/25 08:01:50;;;;;;;23.63;21.83;;;18.20;99.90;;;;;;5993749;23;20813;-79
2022/04/25 08:04:17;;;;;;;23.60;21.80;;;17.90;99.90;;;;;;5990968;23;20473;-79
2022/04/25 08:06:44;;;;;;;23.60;21.80;;;17.60;99.90;;;;;;5995248;23;20540;-79
2022/04/25 08:09:12;;;;;;;25.10;23.20;;;17.40;99.90;;;;;;6002568;23;20535;-79
2022/04/25 08:11:39;;;;;;;24.73;22.83;;;17.00;99.90;;;;;;5998776;23;20435;-79
2022/04/25 08:19:32;;;;;;;24.97;23.07;;;15.50;99.90;;;;;;5949323;23;20527;-79
2022/04/25 08:22:00;;;;;;;24.03;22.13;;;15.30;99.90;;;;;;5998185;23;20448;-79
2022/04/25 08:24:29;;;;;;;24.00;22.20;;;14.90;99.90;;;;;;6002553;23;20446;-79
2022/04/25 08:26:56;;;;;;;25.43;23.43;;;14.80;99.90;;;;;;6000094;23;20994;-79
2022/04/25 08:29:24;;;;;;;23.87;22.07;;;14.60;99.90;;;;;;6001277;23;20458;-79
2022/04/25 08:31:52;;;;;;;24.88;22.90;;;14.50;99.90;;;;;;5999148;23;20477;-78
2022/04/25 08:34:19;;;;;;;21.63;20.03;;;14.00;99.90;;;;;;6001553;23;20193;-78
2022/04/25 08:36:46;;;;;;;24.60;22.50;;;13.90;99.90;;;;;;5997652;23;20477;-79
2022/04/25 08:39:13;;;;;;;25.23;23.13;;;14.10;99.90;;;;;;6002733;23;20265;-78
2022/04/25 08:41:46;;;;;;;23.57;21.60;;;14.10;99.90;;;;;;5999373;23;20569;-79
2022/04/25 08:44:18;;;;;;;21.33;19.73;;;14.30;99.90;;;;;;5999428;23;20437;-79
2022/04/25 08:46:48;;;;;;;21.60;19.90;;;14.50;99.90;;;;;;5998193;23;20464;-79
2022/04/25 08:49:16;;;;;;;21.40;19.70;;;14.70;99.90;;;;;;5990057;23;20517;-79
2022/04/25 08:51:43;;;;;;;20.13;18.60;;;14.80;99.90;;;;;;5996358;23;20439;-79
2022/04/25 08:54:10;;;;;;;19.65;18.15;;;14.90;99.90;;;;;;5997094;23;20896;-79
2022/04/25 08:56:40;;;;;;;19.17;17.63;;;14.90;99.90;;;;;;5998377;23;20215;-81
2022/04/25 08:59:10;;;;;;;19.07;17.57;;;14.90;99.90;;;;;;5999210;23;20437;-78
2022/04/25 09:01:40;;;;;;;20.63;19.03;;;14.80;99.90;;;;;;5967556;23;20523;-79
2022/04/25 09:04:07;;;;;;;18.77;17.37;;;14.70;99.90;;;;;;6013105;23;20453;-80
2022/04/25 09:06:34;;;;;;;19.70;18.10;;;14.80;99.90;;;;;;6001615;23;20541;-80
2022/04/25 09:09:02;;;;;;;19.63;17.90;;;15.00;99.90;;;;;;5999997;23;20455;-79
2022/04/25 09:14:15;;;;;;;17.10;15.80;;;16.30;99.90;;;;;;5994401;23;20523;-80
2022/04/25 09:16:42;;;;;;;17.03;15.63;;;17.60;99.90;;;;;;5993735;23;20465;-80
2022/04/25 09:19:09;;;;;;;17.63;16.13;;;18.90;99.90;;;;;;5995145;23;20440;-81
2022/04/25 09:21:42;;;;;;;17.33;16.00;;;20.00;99.90;;;;;;5996101;23;20453;-78
2022/04/25 09:24:25;;;;;;;17.80;16.50;;;20.90;99.90;;;;;;5993455;23;20524;-78
2022/04/25 09:26:53;;;;;;;16.43;15.23;;;21.20;99.90;;;;;;5991138;23;20571;-78
2022/04/25 09:29:28;;;;;;;15.30;14.20;;;21.30;99.80;;;;;;5993200;23;20480;-78
2022/04/25 09:31:56;;;;;;;17.50;16.30;;;21.00;98.70;;;;;;5998303;23;20528;-78
2022/04/25 09:37:06;;;;;;;16.40;15.20;;;19.60;98.40;;;;;;5993976;23;20556;-78
2022/04/25 09:39:33;;;;;;;16.60;15.40;;;19.30;99.00;;;;;;5995943;23;20819;-78
2022/04/25 09:42:02;;;;;;;17.20;15.90;;;19.00;98.80;;;;;;6000369;23;20448;-78
2022/04/25 09:44:54;;;;;;;18.00;16.50;;;18.50;99.30;;;;;;5994224;23;20539;-77
2022/04/25 09:47:28;;;;;;;18.70;17.30;;;18.30;99.90;;;;;;5999652;23;20484;-78
2022/04/25 09:49:59;;;;;;;19.63;18.20;;;18.10;99.90;;;;;;6000026;23;20932;-78
2022/04/25 09:52:27;;;;;;;18.97;17.57;;;17.90;99.90;;;;;;6001552;23;20448;-77
2022/04/25 09:54:54;;;;;;;18.47;17.07;;;17.90;99.90;;;;;;6001764;23;20517;-77
2022/04/25 09:57:30;;;;;;;18.83;17.43;;;17.80;99.90;;;;;;5992221;23;20497;-76
2022/04/25 09:59:59;;;;;;;18.07;16.67;;;17.90;99.90;;;;;;5994098;23;20481;-77
2022/04/25 10:02:26;;;;;;;18.07;16.43;;;18.00;99.90;;;;;;6002970;23;21181;-78
2022/04/25 10:04:53;;;;;;;17.90;16.60;;;18.10;99.90;;;;;;5991999;23;20488;-73
2022/04/25 10:07:22;;;;;;;18.47;17.03;;;18.10;99.90;;;;;;5999726;23;20469;-77
2022/04/25 10:09:52;;;;;;;16.53;15.23;;;17.80;99.90;;;;;;5998493;23;20438;-76
2022/04/25 10:12:19;;;;;;;15.87;14.67;;;17.70;99.90;;;;;;5997524;23;20504;-75
2022/04/25 10:14:47;;;;;;;15.87;14.77;;;17.80;99.90;;;;;;5999573;23;20524;-75
2022/04/25 10:17:16;;;;;;;14.80;13.70;;;18.20;99.90;;;;;;5991083;23;20473;-83
2022/04/25 10:19:44;;;;;;;17.23;15.83;;;18.90;99.90;;;;;;5995922;23;20481;-74
2022/04/25 10:22:12;;;;;;;17.10;15.90;;;19.10;98.60;;;;;;5999962;23;20448;-74
2022/04/25 10:24:40;;;;;;;16.43;15.23;;;19.00;98.80;;;;;;5996415;23;20540;-76
2022/04/25 10:27:12;;;;;;;16.40;15.10;;;18.60;99.00;;;;;;6001682;23;20531;-74
2022/04/25 10:29:45;;;;;;;15.90;14.70;;;18.70;99.80;;;;;;6001320;23;20467;-74
2022/04/25 10:32:17;;;;;;;15.30;14.20;;;19.10;98.60;;;;;;5994626;23;20956;-77
2022/04/25 10:34:51;;;;;;;13.90;12.90;;;19.40;98.70;;;;;;6001789;23;20439;-75
2022/04/25 10:37:32;;;;;;;14.70;13.70;;;19.30;97.20;;;;;;6001326;23;20469;-75
2022/04/25 10:40:01;;;;;;;14.43;13.43;;;18.60;97.60;;;;;;5994462;23;20520;-75
2022/04/25 10:45:13;;;;;;;15.00;13.87;;;17.80;98.60;;;;;;5995905;23;20683;-74
2022/04/25 10:47:58;;;;;;;15.70;14.47;;;17.50;99.70;;;;;;5998384;23;20460;-74
2022/04/25 10:50:28;;;;;;;14.67;13.63;;;17.50;99.90;;;;;;5991279;23;20472;-73
2022/04/25 10:52:56;;;;;;;13.83;12.80;;;17.40;99.90;;;;;;5992728;23;20449;-76
2022/04/25 10:55:46;;;;;;;12.60;11.70;;;17.30;99.90;;;;;;5994063;23;20442;-72
2022/04/25 10:58:17;;;;;;;14.10;13.10;;;17.50;99.90;;;;;;5990330;23;20483;-77
2022/04/25 11:00:52;;;;;;;13.97;13.07;;;17.70;99.90;;;;;;5992473;23;20437;-77
2022/04/25 11:03:26;;;;;;;15.93;14.70;;;17.90;99.90;;;;;;5987448;23;20481;-84
2022/04/25 11:05:56;;;;;;;15.07;14.00;;;18.10;99.90;;;;;;5999877;23;20457;-83
2022/04/25 11:08:28;;;;;;;13.30;12.30;;;18.30;99.90;;;;;;5999935;23;20476;-82
2022/04/25 11:11:08;;;;;;;14.83;13.73;;;18.50;99.90;;;;;;6001221;23;20453;-84
2022/04/25 11:13:37;;;;;;;15.20;14.10;;;18.50;99.90;;;;;;5982643;23;20461;-83
2022/04/25 11:16:21;;;;;;;14.40;13.40;;;18.80;99.80;;;;;;6004782;23;20475;-83
2022/04/25 11:19:07;;;;;;;14.53;13.37;;;18.90;99.30;;;;;;6004057;23;20439;-86
2022/04/25 11:21:35;;;;;;;14.77;13.57;;;18.90;98.50;;;;;;5982125;23;20446;-83
2022/04/25 11:24:04;;;;;;;16.87;15.50;;;18.90;98.90;;;;;;6001301;23;20449;-85
2022/04/25 11:26:59;;;;;;;15.73;14.53;;;18.70;99.70;;;;;;6006154;23;20922;-86
2022/04/25 11:29:26;;;;;;;15.70;14.60;;;18.50;99.60;;;;;;5939814;23;20456;-84
2022/04/25 11:32:13;;;;;;;16.40;15.30;;;18.20;99.90;;;;;;6000954;23;20528;-86
2022/04/25 11:34:40;;;;;;;15.00;13.83;;;18.10;99.90;;;;;;5985922;23;20491;-87
2022/04/25 11:37:12;;;;;;;16.53;15.33;;;17.90;99.90;;;;;;5989014;23;20469;-83
2022/04/25 11:39:51;;;;;;;16.63;15.43;;;18.00;99.90;;;;;;6003214;23;20540;-76
2022/04/25 11:42:19;;;;;;;16.60;15.40;;;18.00;99.90;;;;;;6002545;23;20455;-79
2022/04/25 11:44:46;;;;;;;16.07;14.80;;;17.60;99.90;;;;;;6004555;23;20444;-78
2022/04/25 11:47:13;;;;;;;16.70;15.47;;;17.50;99.90;;;;;;5999528;23;20996;-79
2022/04/25 11:49:41;;;;;;;16.63;15.43;;;17.30;99.90;;;;;;6003835;23;20433;-79
2022/04/25 11:52:15;;;;;;;16.67;15.43;;;17.20;99.90;;;;;;5982602;23;20468;-79
2022/04/25 11:54:43;;;;;;;16.53;15.33;;;17.10;99.90;;;;;;5984830;23;20745;-79
2022/04/25 11:57:10;;;;;;;14.50;13.43;;;17.00;99.90;;;;;;6002314;23;20461;-76
2022/04/25 11:59:36;;;;;;;16.93;15.63;;;16.90;99.90;;;;;;6015082;23;20488;-83
2022/04/25 12:02:04;;;;;;;20.63;19.03;;;17.00;99.90;;;;;;6018744;23;20524;-81
2022/04/25 12:04:33;;;;;;;17.77;16.37;;;17.10;99.90;;;;;;6005461;23;20496;-86
2022/04/25 12:07:02;;;;;;;17.43;16.10;;;17.00;99.90;;;;;;5983152;23;20493;-79
2022/04/25 12:17:52;;;;;;;17.97;16.67;;;16.90;99.90;;;;;;5998871;23;20494;-78
2022/04/25 12:20:21;;;;;;;16.90;15.63;;;16.90;99.90;;;;;;6001644;23;20437;-79
2022/04/25 12:22:55;;;;;;;16.20;15.10;;;16.90;99.90;;;;;;5999218;23;20955;-80
2022/04/25 12:25:25;;;;;;;16.50;15.30;;;16.90;99.90;;;;;;5998196;23;20433;-80
2022/04/25 12:28:07;;;;;;;16.87;15.63;;;16.70;99.90;;;;;;6003213;23;20809;-79
2022/04/25 12:30:48;;;;;;;17.63;16.33;;;16.60;99.90;;;;;;6000098;23;20957;-79
2022/04/25 12:33:16;;;;;;;17.13;15.90;;;16.50;99.90;;;;;;5999024;23;20495;-79
2022/04/25 12:35:44;;;;;;;17.63;16.33;;;16.50;99.90;;;;;;6000273;23;20971;-79
2022/04/25 12:38:32;;;;;;;16.90;15.60;;;16.40;99.90;;;;;;6001045;23;20476;-79
2022/04/25 12:41:00;;;;;;;16.47;15.20;;;16.30;99.90;;;;;;5996963;23;20433;-79
2022/04/25 12:43:42;;;;;;;17.30;16.00;;;16.30;99.90;;;;;;6001262;23;20477;-80
2022/04/25 12:46:09;;;;;;;17.40;16.00;;;16.00;99.90;;;;;;5998642;23;21054;-80
2022/04/25 12:49:04;;;;;;;17.93;16.53;;;15.80;99.90;;;;;;6000113;23;20952;-80
2022/04/25 12:51:34;;;;;;;16.77;15.47;;;15.60;99.90;;;;;;5994931;23;20444;-80
2022/04/25 12:54:01;;;;;;;15.80;14.60;;;15.60;99.90;;;;;;5999950;23;20444;-80
2022/04/25 12:56:31;;;;;;;18.83;17.40;;;15.40;99.90;;;;;;6000713;23;20830;-80
2022/04/25 12:58:59;;;;;;;18.00;16.60;;;15.30;99.90;;;;;;5991985;23;20554;-80
2022/04/25 13:01:31;;;;;;;18.63;17.23;;;15.30;99.90;;;;;;5995837;23;20519;-79
2022/04/25 13:04:06;;;;;;;18.07;16.77;;;15.30;99.90;;;;;;5991117;23;20451;-80
2022/04/25 13:06:35;;;;;;;17.00;15.70;;;15.40;99.90;;;;;;5999519;23;21168;-80
2022/04/25 13:09:03;;;;;;;17.30;16.00;;;15.60;99.90;;;;;;5996014;23;20453;-82
2022/04/25 13:11:31;;;;;;;16.17;14.97;;;15.60;99.90;;;;;;5995136;23;20948;-80
2022/04/25 13:13:59;;;;;;;16.50;15.20;;;15.80;99.90;;;;;;6004205;23;20441;-80
2022/04/25 13:16:26;;;;;;;16.67;15.47;;;15.90;99.90;;;;;;6003007;23;22131;-79
2022/04/25 13:18:53;;;;;;;15.60;14.50;;;16.20;99.90;;;;;;5993218;23;20476;-80
2022/04/25 13:21:20;;;;;;;17.13;15.83;;;16.50;99.90;;;;;;5990426;23;20801;-80